Miami, Florida
Traffic Map
Current Weather Conditions
Miami, Florida
Few Clouds
Few Clouds
81°
Feels Like: 82°
Wind Chill: 81° Ceiling: Unl
Heat Index: 82° Visibility: 10mi
Dew Point: 62° Wind: 10mph
Humidity: 52% Direction: 60° (ENE)
Pressure: 30.2in Gusts: 18mph
Raw Report DataKMIA 021853Z 06009G16KT 10SM FEW035 27/17 A3020 RMK AO2 SLP226 T02720167 $
Traffic Incident Summary
Active as of:
Severity:
Category:
InformationThere was an issue retrieving the traffic information for this location. Please try a different location or try again shortly.
Advertisements
Track Severe Weather on mobile